createdAt,value
2019-03-29T00:00:24.609Z,28.27
2019-03-29T00:05:19.873Z,28.70
2019-03-29T00:10:19.357Z,28.57
2019-03-29T00:15:14.505Z,25.07
2019-03-29T00:20:09.305Z,25.57
2019-03-29T00:25:10.154Z,25.73
2019-03-29T00:30:12.040Z,26.17
2019-03-29T00:35:28.687Z,26.67
2019-03-29T00:40:34.454Z,25.80
2019-03-29T00:45:41.294Z,28.10
2019-03-29T00:50:40.614Z,27.37
2019-03-29T00:55:37.915Z,25.80
2019-03-29T01:00:42.075Z,28.70
2019-03-29T01:05:50.561Z,28.27
2019-03-29T01:10:56.374Z,28.70
2019-03-29T01:15:55.749Z,27.53
2019-03-29T01:21:01.751Z,32.20
2019-03-29T01:26:10.201Z,30.87
2019-03-29T01:31:15.162Z,28.23
2019-03-29T01:36:16.731Z,28.70
2019-03-29T01:41:16.064Z,27.57
2019-03-29T01:46:17.683Z,29.97
2019-03-29T01:51:17.500Z,30.80
2019-03-29T01:56:18.802Z,27.33
2019-03-29T02:01:19.547Z,29.80
2019-03-29T02:06:27.791Z,26.47
2019-03-29T02:11:49.775Z,26.53
2019-03-29T02:17:02.947Z,27.47
2019-03-29T02:22:02.896Z,29.27
2019-03-29T02:27:06.897Z,29.73
2019-03-29T02:32:06.342Z,28.30
2019-03-29T02:37:09.022Z,28.27
2019-03-29T02:42:14.773Z,27.87
2019-03-29T02:47:29.463Z,30.97
2019-03-29T02:52:29.921Z,29.20
2019-03-29T02:57:31.166Z,30.37
2019-03-29T03:02:27.089Z,29.70
2019-03-29T03:07:37.008Z,27.07
2019-03-29T03:12:42.254Z,30.03
2019-03-29T03:17:51.675Z,31.97
2019-03-29T03:22:56.061Z,29.70
2019-03-29T03:27:57.302Z,29.00
2019-03-29T03:32:59.253Z,29.53
2019-03-29T03:38:12.039Z,27.03
2019-03-29T03:43:09.307Z,24.30
2019-03-29T03:48:05.778Z,27.00
2019-03-29T03:53:07.439Z,25.80
2019-03-29T03:58:07.437Z,24.97
2019-03-29T04:08:51.073Z,27.93
2019-03-29T04:13:52.173Z,25.37
2019-03-29T04:19:02.685Z,25.73
2019-03-29T04:24:01.047Z,25.90
2019-03-29T04:29:04.835Z,27.33
2019-03-29T04:34:12.281Z,26.37
2019-03-29T04:39:32.218Z,23.47
2019-03-29T04:44:33.844Z,26.27
2019-03-29T04:49:37.050Z,32.40
2019-03-29T04:54:38.645Z,28.40
2019-03-29T04:59:45.336Z,27.43
2019-03-29T05:04:48.718Z,24.73
2019-03-29T05:09:49.740Z,24.30
2019-03-29T05:14:50.503Z,26.10
2019-03-29T05:20:12.854Z,26.77
2019-03-29T05:25:22.908Z,29.93
2019-03-29T05:30:28.650Z,27.90
2019-03-29T05:35:26.644Z,28.80
2019-03-29T05:40:34.371Z,27.57
2019-03-29T05:45:24.335Z,29.20
2019-03-29T05:50:20.847Z,34.23
2019-03-29T05:55:33.181Z,29.93
2019-03-29T06:00:38.723Z,30.37
2019-03-29T06:05:38.729Z,39.07
2019-03-29T06:10:48.714Z,35.80
2019-03-29T06:15:56.032Z,40.30
2019-03-29T06:21:08.198Z,34.07
2019-03-29T06:26:08.343Z,36.50
2019-03-29T06:31:09.656Z,42.40
2019-03-29T06:36:43.868Z,34.83
2019-03-29T06:41:53.751Z,29.53
2019-03-29T06:46:57.548Z,29.10
2019-03-29T06:51:59.472Z,30.47
2019-03-29T06:57:03.197Z,33.17
2019-03-29T07:02:08.648Z,30.03
2019-03-29T07:07:07.863Z,29.97
2019-03-29T07:12:09.963Z,31.60
2019-03-29T07:17:28.380Z,30.90
2019-03-29T07:23:04.114Z,32.10
2019-03-29T07:33:09.913Z,25.20
2019-03-29T07:38:07.617Z,23.13
2019-03-29T07:43:07.164Z,21.40
2019-03-29T07:48:05.645Z,22.03
2019-03-29T07:53:08.377Z,20.23
2019-03-29T07:58:09.270Z,18.43
2019-03-29T08:03:08.324Z,20.67
2019-03-29T08:08:23.274Z,19.13
2019-03-29T08:13:19.281Z,16.90
2019-03-29T08:18:20.471Z,17.67
2019-03-29T08:23:28.541Z,16.43
2019-03-29T08:28:37.077Z,15.00
2019-03-29T08:33:36.138Z,14.93
2019-03-29T08:38:34.998Z,13.27
2019-03-29T08:43:39.284Z,15.63
2019-03-29T08:48:36.642Z,12.50
2019-03-29T08:53:41.326Z,10.53
2019-03-29T08:58:37.982Z,11.40
2019-03-29T09:04:04.773Z,9.67
2019-03-29T09:08:50.266Z,11.60
2019-03-29T09:13:54.654Z,13.90
2019-03-29T09:18:58.817Z,11.60
2019-03-29T09:23:54.708Z,12.10
2019-03-29T09:29:12.704Z,11.00
2019-03-29T09:34:22.626Z,8.43
2019-03-29T09:44:37.695Z,6.57
2019-03-29T09:49:35.320Z,8.43
2019-03-29T09:54:40.503Z,4.43
2019-03-29T09:59:41.220Z,4.30
2019-03-29T10:04:41.101Z,5.33
2019-03-29T10:09:49.164Z,6.90
2019-03-29T10:14:54.428Z,4.20
2019-03-29T10:20:03.415Z,3.20
2019-03-29T10:25:18.464Z,3.70
2019-03-29T10:30:06.981Z,17.23
2019-03-29T10:35:17.715Z,4.00
2019-03-29T10:40:16.086Z,4.37
2019-03-29T10:45:25.353Z,5.63
2019-03-29T10:50:29.762Z,6.70
2019-03-29T10:55:27.055Z,5.67
2019-03-29T11:00:40.162Z,6.63
2019-03-29T11:05:40.922Z,5.50
2019-03-29T11:10:45.043Z,4.90
2019-03-29T11:15:44.218Z,9.17
2019-03-29T11:20:42.137Z,8.57
2019-03-29T11:25:55.146Z,6.43
2019-03-29T11:30:54.806Z,6.37
2019-03-29T11:35:56.309Z,7.80
2019-03-29T11:40:54.468Z,7.03
2019-03-29T11:46:04.024Z,7.67
2019-03-29T11:51:01.010Z,7.67
2019-03-29T11:56:03.431Z,6.73
2019-03-29T12:01:07.943Z,5.37
2019-03-29T12:06:14.788Z,6.57
2019-03-29T12:11:16.819Z,6.30
2019-03-29T12:16:14.637Z,7.67
2019-03-29T12:21:13.772Z,7.00
2019-03-29T12:26:15.664Z,6.93
2019-03-29T12:31:30.810Z,7.37
2019-03-29T12:36:42.412Z,6.60
2019-03-29T12:42:01.013Z,6.10
2019-03-29T12:47:04.445Z,6.63
2019-03-29T12:52:05.888Z,6.77
2019-03-29T12:57:06.942Z,6.97
2019-03-29T13:02:02.625Z,6.07
2019-03-29T13:07:02.037Z,5.43
2019-03-29T13:12:00.547Z,6.63
2019-03-29T13:17:02.952Z,6.67
2019-03-29T13:22:04.499Z,5.20
2019-03-29T13:27:13.181Z,7.00
2019-03-29T13:32:09.155Z,18.60
2019-03-29T13:37:09.233Z,14.67
2019-03-29T13:42:18.806Z,6.03
2019-03-29T13:47:28.644Z,6.93
2019-03-29T13:52:35.264Z,5.10
2019-03-29T13:57:38.370Z,6.87
2019-03-29T14:02:34.736Z,5.33
2019-03-29T14:07:35.417Z,7.03
2019-03-29T14:12:33.032Z,12.90
2019-03-29T14:17:33.080Z,13.17
2019-03-29T14:22:32.658Z,6.20
2019-03-29T14:27:31.970Z,5.37
2019-03-29T14:32:32.764Z,7.23
2019-03-29T14:37:34.924Z,5.60
2019-03-29T14:42:40.038Z,5.90
2019-03-29T14:47:45.630Z,5.10
2019-03-29T14:52:56.472Z,6.93
2019-03-29T14:57:58.297Z,5.23
2019-03-29T15:03:02.302Z,5.20
2019-03-29T15:08:07.106Z,5.00
2019-03-29T15:13:08.167Z,4.67
2019-03-29T15:18:08.169Z,3.93
2019-03-29T15:23:05.908Z,8.00
2019-03-29T15:28:12.673Z,9.40
2019-03-29T15:33:14.522Z,12.80
2019-03-29T15:38:10.318Z,8.63
2019-03-29T15:43:12.739Z,7.67
2019-03-29T15:48:11.736Z,8.90
2019-03-29T15:53:09.885Z,7.33
2019-03-29T15:58:18.247Z,6.63
2019-03-29T16:03:20.171Z,6.20
2019-03-29T16:08:16.824Z,8.03
2019-03-29T16:13:13.220Z,6.30
2019-03-29T16:18:10.888Z,7.30
2019-03-29T16:23:07.406Z,10.30
2019-03-29T16:28:05.315Z,7.87
2019-03-29T16:33:04.451Z,7.53
2019-03-29T16:38:03.039Z,8.70
2019-03-29T16:43:06.592Z,7.47
2019-03-29T16:48:14.097Z,11.07
2019-03-29T16:53:12.427Z,7.63
2019-03-29T16:58:08.187Z,10.07
2019-03-29T17:03:14.327Z,7.10
2019-03-29T17:08:05.300Z,7.97
2019-03-29T17:12:59.542Z,9.80
2019-03-29T17:17:59.611Z,8.17
2019-03-29T17:22:59.033Z,11.37
2019-03-29T17:27:57.188Z,9.40
2019-03-29T17:33:04.003Z,10.87
2019-03-29T17:38:04.599Z,9.80
2019-03-29T17:43:02.175Z,8.17
2019-03-29T17:48:01.904Z,10.63
2019-03-29T17:53:01.411Z,10.63
2019-03-29T17:58:08.462Z,8.80
2019-03-29T18:03:12.885Z,10.87
2019-03-29T18:08:15.555Z,14.20
2019-03-29T18:13:09.693Z,11.17
2019-03-29T18:18:12.865Z,12.53
2019-03-29T18:23:12.825Z,11.53
2019-03-29T18:28:11.331Z,14.87
2019-03-29T18:33:11.253Z,16.97
2019-03-29T18:38:13.196Z,28.53
2019-03-29T18:43:12.346Z,49.30
2019-03-29T18:48:11.448Z,21.10
2019-03-29T18:53:08.480Z,19.30
2019-03-29T18:58:09.623Z,17.50
2019-03-29T19:03:39.019Z,14.30
2019-03-29T19:08:17.158Z,17.07
2019-03-29T19:13:09.530Z,15.23
2019-03-29T19:18:14.738Z,27.23
2019-03-29T19:23:13.421Z,51.87
2019-03-29T19:28:15.854Z,41.67
2019-03-29T19:33:12.479Z,27.40
2019-03-29T19:38:16.255Z,20.23
2019-03-29T19:43:18.411Z,27.73
2019-03-29T19:48:24.293Z,38.03
2019-03-29T19:53:25.285Z,20.37
2019-03-29T19:58:22.028Z,19.50
2019-03-29T20:03:22.556Z,15.13
2019-03-29T20:08:23.807Z,17.77
2019-03-29T20:13:26.700Z,14.40
2019-03-29T20:18:31.120Z,31.03
2019-03-29T20:23:28.910Z,28.17
2019-03-29T20:28:31.840Z,20.60
2019-03-29T20:33:31.556Z,24.27
2019-03-29T20:38:27.722Z,16.40
2019-03-29T20:43:27.394Z,17.80
2019-03-29T20:48:28.270Z,18.87
2019-03-29T20:53:31.300Z,21.60
2019-03-29T20:58:34.488Z,19.43
2019-03-29T21:03:30.761Z,20.77
2019-03-29T21:08:29.218Z,28.27
2019-03-29T21:13:24.357Z,18.07
2019-03-29T21:18:22.303Z,18.47
2019-03-29T21:23:30.085Z,21.30
2019-03-29T21:28:36.158Z,18.20
2019-03-29T21:33:36.487Z,19.27
2019-03-29T21:38:33.242Z,19.33
2019-03-29T21:43:31.618Z,43.03
2019-03-29T21:48:31.250Z,51.23
2019-03-29T21:53:35.672Z,58.03
2019-03-29T21:58:36.601Z,101.23
2019-03-29T22:03:47.843Z,68.80
2019-03-29T22:08:50.355Z,89.97
2019-03-29T22:13:49.535Z,87.40
2019-03-29T22:18:49.023Z,135.17
2019-03-29T22:23:50.200Z,139.47
2019-03-29T22:28:50.134Z,69.70
2019-03-29T22:33:50.894Z,44.63
2019-03-29T22:38:50.605Z,43.50
2019-03-29T22:43:50.775Z,37.43
2019-03-29T22:48:52.423Z,40.70
2019-03-29T22:53:57.001Z,102.10
2019-03-29T22:59:00.209Z,98.13
2019-03-29T23:04:12.838Z,53.13
2019-03-29T23:09:12.987Z,95.33
2019-03-29T23:14:10.550Z,79.70
2019-03-29T23:19:09.148Z,26.77
2019-03-29T23:24:15.792Z,31.60
2019-03-29T23:29:20.332Z,31.13
2019-03-29T23:34:24.185Z,25.77
2019-03-29T23:39:25.420Z,33.07
2019-03-29T23:44:26.093Z,37.63
2019-03-29T23:49:23.287Z,51.00
2019-03-29T23:54:23.782Z,32.87
2019-03-29T23:59:21.753Z,85.33
